Time;durP1;ratioP1;P1;durP2;ratioP2;P2;SDS_P1;SDS_P2;PMS_P1;PMS_P2;Temp;Humidity;BMP_temperature;BMP_pressure;BME280_temperature;BME280_humidity;BME280_pressure;Samples;Min_cycle;Max_cycle;Signal;HPM_P1;HPM_P2
2023/11/30 00:01:34;;;;;;;1999.90;999.90;;;;;;;0.70;91.26;96080.72;5116262;28;20493;-62
2023/11/30 00:04:01;;;;;;;1999.90;999.90;;;;;;;0.74;91.17;96090.13;5116331;28;20051;-64
2023/11/30 00:06:28;;;;;;;1999.90;999.90;;;;;;;0.81;90.92;96087.50;5116214;28;20050;-62
2023/11/30 00:08:57;;;;;;;1999.90;999.90;;;;;;;0.88;90.46;96094.31;5116186;28;20075;-62
2023/11/30 00:11:25;;;;;;;1999.90;999.90;;;;;;;0.91;89.85;96102.03;5116224;28;20047;-58
2023/11/30 00:13:52;;;;;;;1999.90;999.90;;;;;;;0.92;89.82;96097.72;5116216;28;20078;-62
2023/11/30 00:16:19;;;;;;;1999.90;999.90;;;;;;;0.93;89.22;96102.03;5116123;28;20046;-63
2023/11/30 00:18:46;;;;;;;1999.90;999.90;;;;;;;0.94;89.03;96107.16;5116114;28;20043;-64
2023/11/30 00:21:13;;;;;;;1999.90;999.90;;;;;;;0.96;88.34;96110.56;5115989;28;20489;-63
2023/11/30 00:23:41;;;;;;;1999.90;999.90;;;;;;;0.92;88.11;96113.16;5115853;28;20496;-63
2023/11/30 00:26:08;;;;;;;1999.90;999.90;;;;;;;0.88;88.09;96120.91;5115585;28;20125;-64
2023/11/30 00:28:36;;;;;;;1999.90;999.90;;;;;;;0.88;87.50;96123.50;5115843;28;20119;-61
2023/11/30 00:31:04;;;;;;;1999.90;999.90;;;;;;;0.83;87.21;96132.13;5115841;28;20050;-60
2023/11/30 00:33:31;;;;;;;1999.90;999.90;;;;;;;0.81;87.05;96136.44;5115723;28;20092;-61
2023/11/30 00:35:58;;;;;;;1999.90;999.90;;;;;;;0.82;86.30;96133.00;5115617;28;20147;-61
2023/11/30 00:38:25;;;;;;;1999.90;999.90;;;;;;;0.74;86.81;96139.03;5115745;28;20131;-61
2023/11/30 00:40:52;;;;;;;1999.90;999.90;;;;;;;0.72;86.94;96150.22;5115666;28;20516;-59
2023/11/30 00:43:19;;;;;;;1999.90;999.90;;;;;;;0.69;87.10;96145.94;5115748;28;20051;-64
2023/11/30 00:45:47;;;;;;;1999.90;999.90;;;;;;;0.62;87.54;96158.00;5114832;28;20047;-61
2023/11/30 00:48:14;;;;;;;1999.90;999.90;;;;;;;0.65;88.13;96154.53;5115255;28;20447;-62
2023/11/30 00:50:41;;;;;;;1999.90;999.90;;;;;;;0.66;88.12;96152.81;5115502;28;20100;-64
2023/11/30 00:53:08;;;;;;;1999.90;999.90;;;;;;;0.64;87.80;96168.28;5115432;28;20500;-61
2023/11/30 00:55:35;;;;;;;1999.90;999.90;;;;;;;0.61;88.09;96169.13;5115394;28;20071;-59
2023/11/30 00:58:02;;;;;;;1999.90;999.90;;;;;;;0.62;87.75;96168.28;5115192;28;20048;-63
2023/11/30 01:00:30;;;;;;;1999.90;999.90;;;;;;;0.64;87.49;96178.59;5115217;28;20092;-61
2023/11/30 01:02:58;;;;;;;1999.90;999.90;;;;;;;0.62;87.33;96182.88;5115115;28;20085;-63
2023/11/30 01:05:25;;;;;;;1999.90;999.90;;;;;;;0.61;87.15;96183.75;5115199;28;20051;-64
2023/11/30 01:07:52;;;;;;;1999.90;999.90;;;;;;;0.60;87.27;96188.03;5115229;28;20043;-62
2023/11/30 01:10:19;;;;;;;1999.90;999.90;;;;;;;0.62;87.50;96188.03;5115062;28;20070;-63
2023/11/30 01:12:46;;;;;;;1999.90;999.90;;;;;;;0.62;88.11;96190.59;5115071;28;20047;-61
2023/11/30 01:15:13;;;;;;;1999.90;999.90;;;;;;;0.62;87.77;96196.59;5114879;28;20082;-63
2023/11/30 01:17:40;;;;;;;1999.90;999.90;;;;;;;0.58;88.08;96192.34;5114997;28;20101;-64
2023/11/30 01:20:10;;;;;;;1999.90;999.90;;;;;;;0.61;88.04;96199.19;5114826;28;20558;-64
2023/11/30 01:22:37;;;;;;;1999.90;999.90;;;;;;;0.58;87.58;96205.22;5114879;28;20043;-62
2023/11/30 01:25:07;;;;;;;1999.90;999.90;;;;;;;0.55;87.13;96202.66;5114499;28;20108;-61
2023/11/30 01:27:34;;;;;;;1999.90;999.90;;;;;;;0.51;87.07;96211.22;5114686;28;20050;-64
2023/11/30 01:30:00;;;;;;;1999.90;999.90;;;;;;;0.47;86.67;96212.97;5114622;28;20122;-62
2023/11/30 01:32:27;;;;;;;1999.90;999.90;;;;;;;0.34;86.77;96213.88;5114748;28;20119;-62
2023/11/30 01:34:54;;;;;;;1999.90;999.90;;;;;;;0.31;87.38;96221.59;5114709;28;20079;-61
2023/11/30 01:37:23;;;;;;;1999.90;999.90;;;;;;;0.32;86.70;96218.16;5114453;28;20094;-61
2023/11/30 01:39:50;;;;;;;1999.90;999.90;;;;;;;0.28;86.33;96224.16;5114488;28;20135;-64
2023/11/30 01:42:17;;;;;;;1999.90;999.90;;;;;;;0.14;86.84;96225.06;5114387;28;20040;-62
2023/11/30 01:44:44;;;;;;;1999.90;999.90;;;;;;;0.15;86.85;96228.50;5114349;28;20051;-61
2023/11/30 01:47:11;;;;;;;1999.90;999.90;;;;;;;0.10;87.55;96226.78;5114370;28;20043;-64
2023/11/30 01:49:38;;;;;;;1999.90;999.90;;;;;;;0.11;87.50;96225.91;5114426;28;20079;-61
2023/11/30 01:52:06;;;;;;;1999.90;999.90;;;;;;;0.07;87.55;96228.50;5114166;28;20047;-61
2023/11/30 01:54:35;;;;;;;1999.90;999.90;;;;;;;-0.03;89.24;96228.50;5114214;28;20051;-61
2023/11/30 01:57:03;;;;;;;1999.90;999.90;;;;;;;-0.08;89.99;96229.38;5114040;28;20039;-62
2023/11/30 01:59:31;;;;;;;1999.90;999.90;;;;;;;-0.09;90.47;96240.53;5114182;28;20046;-62
2023/11/30 02:02:00;;;;;;;1999.90;999.90;;;;;;;-0.04;90.74;96234.50;5114228;28;20120;-61
2023/11/30 02:04:31;;;;;;;1999.90;999.90;;;;;;;0.01;90.31;96231.06;5114119;28;20101;-64
2023/11/30 02:06:58;;;;;;;1999.90;999.90;;;;;;;0.03;89.83;96239.66;5113974;28;20074;-63
2023/11/30 02:09:25;;;;;;;1999.90;999.90;;;;;;;0.05;89.37;96243.94;5113908;28;20481;-61
2023/11/30 02:11:54;;;;;;;1999.90;999.90;;;;;;;0.05;89.46;96241.34;5113856;28;20405;-61
2023/11/30 02:14:21;;;;;;;1999.90;999.90;;;;;;;0.08;89.03;96236.22;5113951;28;20073;-64
2023/11/30 02:16:48;;;;;;;1999.90;999.90;;;;;;;0.10;88.63;96238.78;5113772;28;20108;-64
2023/11/30 02:19:15;;;;;;;1999.90;999.90;;;;;;;0.10;88.58;96242.22;5113815;28;20073;-60
2023/11/30 02:21:50;;;;;;;1999.90;999.90;;;;;;;0.13;88.14;96256.78;5113691;28;20138;-62
2023/11/30 02:24:17;;;;;;;1999.90;999.90;;;;;;;0.15;88.21;96255.06;5113726;28;20057;-64
2023/11/30 02:26:44;;;;;;;1999.90;999.90;;;;;;;0.21;87.85;96255.03;5113492;28;20046;-62
2023/11/30 02:29:15;;;;;;;1999.90;999.90;;;;;;;0.21;87.45;96256.78;5113791;28;20044;-62
2023/11/30 02:31:42;;;;;;;1999.90;999.90;;;;;;;0.19;86.88;96259.34;5113614;28;20058;-65
2023/11/30 02:34:09;;;;;;;1999.90;999.90;;;;;;;0.18;86.41;96262.78;5113548;28;20044;-60
2023/11/30 02:36:36;;;;;;;1999.90;999.90;;;;;;;0.19;86.82;96259.34;5113654;28;20083;-64
2023/11/30 02:39:05;;;;;;;1999.90;999.90;;;;;;;0.19;86.74;96261.94;5113478;28;20501;-63
2023/11/30 02:41:31;;;;;;;1999.90;999.90;;;;;;;0.16;87.15;96264.50;5113460;28;20044;-63
2023/11/30 02:43:58;;;;;;;1999.90;999.90;;;;;;;0.20;87.24;96262.78;5113283;28;20496;-61
2023/11/30 02:46:25;;;;;;;1999.90;999.90;;;;;;;0.20;87.13;96267.91;5113401;28;20101;-59
2023/11/30 02:48:52;;;;;;;1999.90;999.90;;;;;;;0.23;87.13;96275.63;5113562;28;20459;-60
2023/11/30 02:51:19;;;;;;;1999.90;999.90;;;;;;;0.23;87.16;96267.91;5113470;28;20043;-63
2023/11/30 02:53:46;;;;;;;1999.90;999.90;;;;;;;0.24;87.29;96283.34;5113351;28;20048;-60
2023/11/30 02:56:15;;;;;;;1999.90;999.90;;;;;;;0.25;86.95;96282.47;5113382;28;20097;-64
2023/11/30 02:58:42;;;;;;;1999.90;999.90;;;;;;;0.26;87.68;96278.22;5113298;28;20126;-63
2023/11/30 03:01:09;;;;;;;1999.90;999.90;;;;;;;0.23;87.69;96284.22;5113333;28;20101;-64
2023/11/30 03:03:36;;;;;;;1999.90;999.90;;;;;;;0.27;87.38;96286.78;5113244;28;20057;-61
2023/11/30 03:06:03;;;;;;;1999.90;999.90;;;;;;;0.30;87.34;96282.47;5113131;28;20130;-62
2023/11/30 03:08:30;;;;;;;1999.90;999.90;;;;;;;0.28;87.58;96289.38;5113176;28;20051;-63
2023/11/30 03:10:57;;;;;;;1999.90;999.90;;;;;;;0.30;87.51;96284.22;5116698;28;20439;-63
2023/11/30 03:13:25;;;;;;;1999.90;999.90;;;;;;;0.32;87.51;96285.91;5117332;28;20150;-61
2023/11/30 03:15:52;;;;;;;1999.90;999.90;;;;;;;0.29;87.71;96288.50;5117234;28;20090;-60
2023/11/30 03:18:19;;;;;;;1999.90;999.90;;;;;;;0.23;87.68;96286.78;5117334;28;20096;-61
2023/11/30 03:20:46;;;;;;;1999.90;999.90;;;;;;;0.22;87.50;96290.22;5117149;28;20557;-64
2023/11/30 03:23:13;;;;;;;1999.90;999.90;;;;;;;0.18;87.46;96287.66;5117108;28;20130;-62
2023/11/30 03:25:40;;;;;;;1999.90;999.90;;;;;;;0.18;86.99;96293.66;5116922;28;20135;-62
2023/11/30 03:28:07;;;;;;;1999.90;999.90;;;;;;;0.19;86.70;96279.94;5117201;28;20101;-61
2023/11/30 03:30:36;;;;;;;1999.90;999.90;;;;;;;0.21;86.38;96287.66;5117047;28;20039;-59
2023/11/30 03:33:03;;;;;;;1999.90;999.90;;;;;;;0.20;86.01;96284.22;5117000;28;20073;-62
2023/11/30 03:35:30;;;;;;;1999.90;999.90;;;;;;;0.11;86.18;96291.94;5117022;28;20051;-61
2023/11/30 03:37:57;;;;;;;1999.90;999.90;;;;;;;0.08;86.85;96291.94;5116935;28;20392;-60
2023/11/30 03:40:24;;;;;;;1999.90;999.90;;;;;;;0.11;87.61;96294.50;5116837;28;20118;-61
2023/11/30 03:42:51;;;;;;;1999.90;999.90;;;;;;;0.10;87.07;96296.25;5116834;28;20050;-62
2023/11/30 03:45:18;;;;;;;1999.90;999.90;;;;;;;0.05;86.94;96299.66;5116652;28;20083;-62
2023/11/30 03:47:47;;;;;;;1999.90;999.90;;;;;;;0.02;86.77;96309.94;5116727;28;20047;-59
2023/11/30 03:50:14;;;;;;;1999.90;999.90;;;;;;;0.03;86.53;96311.69;5116770;28;20048;-60
2023/11/30 03:52:41;;;;;;;1999.90;999.90;;;;;;;0.04;86.55;96321.09;5116750;28;20079;-64
2023/11/30 03:55:09;;;;;;;1999.90;999.90;;;;;;;0.02;86.21;96315.94;5116462;28;20436;-62
2023/11/30 03:57:36;;;;;;;1999.90;999.90;;;;;;;0.03;86.23;96317.66;5116491;28;20096;-62
2023/11/30 04:00:07;;;;;;;1999.90;999.90;;;;;;;0.02;85.53;96321.09;5116497;28;20051;-63
2023/11/30 04:02:34;;;;;;;1999.90;999.90;;;;;;;0.01;85.55;96323.66;5116429;28;20088;-61
2023/11/30 04:05:05;;;;;;;1999.90;999.90;;;;;;;-0.04;85.63;96339.97;5116318;28;20092;-64
2023/11/30 04:07:32;;;;;;;1999.90;999.90;;;;;;;-0.03;85.36;96349.38;5116334;28;20044;-58
2023/11/30 04:09:59;;;;;;;1999.90;999.90;;;;;;;-0.06;85.25;96351.13;5116213;28;20069;-60
2023/11/30 04:12:26;;;;;;;1999.90;999.90;;;;;;;-0.11;85.34;96356.25;5116191;28;20126;-64
2023/11/30 04:14:53;;;;;;;1999.90;999.90;;;;;;;-0.11;84.71;96357.94;5116051;28;20417;-60
2023/11/30 04:17:20;;;;;;;1999.90;999.90;;;;;;;-0.26;85.13;96367.38;5116107;28;20054;-64
2023/11/30 04:19:47;;;;;;;1999.90;999.90;;;;;;;-0.24;85.23;96370.78;5115946;28;20083;-60
2023/11/30 04:22:16;;;;;;;1999.90;999.90;;;;;;;-0.31;85.43;96364.78;5114739;28;20055;-61
2023/11/30 04:24:43;;;;;;;1999.90;999.90;;;;;;;-0.31;85.07;96376.75;5115993;28;20116;-62
2023/11/30 04:27:10;;;;;;;1999.90;999.90;;;;;;;-0.33;85.42;96376.75;5115683;28;20047;-64
2023/11/30 04:29:37;;;;;;;1999.90;999.90;;;;;;;-0.40;85.67;96380.16;5115781;28;20059;-62
2023/11/30 04:32:05;;;;;;;1999.90;999.90;;;;;;;-0.47;85.90;96383.56;5115803;28;20044;-63
2023/11/30 04:34:33;;;;;;;1999.90;999.90;;;;;;;-0.54;86.43;96380.16;5115758;28;20055;-60
2023/11/30 04:37:00;;;;;;;1999.90;999.90;;;;;;;-0.59;87.99;96380.13;5115717;28;20040;-64
2023/11/30 04:39:29;;;;;;;1999.90;999.90;;;;;;;-0.61;87.96;96380.97;5115741;28;20054;-61
2023/11/30 04:41:56;;;;;;;1999.90;999.90;;;;;;;-0.61;87.86;96388.69;5115750;28;20466;-63
2023/11/30 04:44:24;;;;;;;1999.90;999.90;;;;;;;-0.61;87.99;96393.84;5115384;28;20451;-63
2023/11/30 04:46:51;;;;;;;1999.90;999.90;;;;;;;-0.64;88.37;96402.38;5115587;28;20135;-60
2023/11/30 04:49:18;;;;;;;1999.90;999.90;;;;;;;-0.63;88.99;96406.66;5115736;28;20101;-62
2023/11/30 04:51:46;;;;;;;1999.90;999.90;;;;;;;-0.60;89.14;96413.53;5115425;28;20089;-60
2023/11/30 04:54:14;;;;;;;1999.90;999.90;;;;;;;-0.57;88.51;96419.53;5115345;28;20047;-63
2023/11/30 04:56:42;;;;;;;1999.90;999.90;;;;;;;-0.53;88.42;96425.53;5115548;28;21219;-59
2023/11/30 04:59:10;;;;;;;1999.90;999.90;;;;;;;-0.51;88.08;96427.25;5115270;28;20130;-64
2023/11/30 05:01:36;;;;;;;1999.90;999.90;;;;;;;-0.46;87.99;96427.28;5115191;28;20438;-64
2023/11/30 05:04:04;;;;;;;1999.90;999.90;;;;;;;-0.43;86.75;96439.28;5115231;28;20100;-62
2023/11/30 05:06:31;;;;;;;1999.90;999.90;;;;;;;-0.46;86.64;96441.84;5115181;28;20128;-65
2023/11/30 05:08:58;;;;;;;1999.90;999.90;;;;;;;-0.44;86.37;96442.72;5115096;28;20051;-66
2023/11/30 05:11:26;;;;;;;1999.90;999.90;;;;;;;-0.42;86.38;96441.03;5115097;28;20079;-62
2023/11/30 05:13:54;;;;;;;1999.90;999.90;;;;;;;-0.42;86.14;96447.00;5115021;28;20043;-65
2023/11/30 05:16:22;;;;;;;1999.90;999.90;;;;;;;-0.43;86.10;96447.00;5115236;28;20061;-60
2023/11/30 05:18:49;;;;;;;1999.90;999.90;;;;;;;-0.55;86.31;96437.53;5115060;28;20054;-63
2023/11/30 05:21:16;;;;;;;1999.90;999.90;;;;;;;-0.52;85.75;96440.97;5114855;28;20043;-64
2023/11/30 05:23:43;;;;;;;1999.90;999.90;;;;;;;-0.51;85.71;96449.56;5115062;28;20047;-62
2023/11/30 05:26:10;;;;;;;1999.90;999.90;;;;;;;-0.46;85.67;96453.00;5114659;28;20051;-63
2023/11/30 05:28:41;;;;;;;1999.90;999.90;;;;;;;-0.43;85.58;96454.69;5114771;28;20101;-61
2023/11/30 05:31:09;;;;;;;;;;;;;;;-0.38;85.50;96453.03;5115177;28;20044;-58
2023/11/30 05:33:36;;;;;;;1999.90;999.90;;;;;;;-0.35;85.64;96457.31;5114309;28;19919;-62
2023/11/30 05:36:04;;;;;;;1999.90;999.90;;;;;;;-0.28;85.28;96454.78;5114517;28;20050;-64
2023/11/30 05:38:31;;;;;;;1999.90;999.90;;;;;;;-0.23;85.39;96459.94;5114644;28;20078;-65
2023/11/30 05:40:58;;;;;;;1999.90;999.90;;;;;;;-0.18;84.92;96454.81;5114434;28;20058;-66
2023/11/30 05:43:26;;;;;;;1999.90;999.90;;;;;;;-0.16;85.03;96459.09;5114523;28;20481;-63
2023/11/30 05:45:53;;;;;;;1999.90;999.90;;;;;;;-0.13;85.46;96463.38;5114419;28;20047;-62
2023/11/30 05:48:22;;;;;;;1999.90;999.90;;;;;;;-0.14;85.04;96454.84;5114345;28;20485;-64
2023/11/30 05:50:49;;;;;;;1999.90;999.90;;;;;;;-0.09;85.11;96453.97;5114336;28;20094;-63
2023/11/30 05:53:16;;;;;;;1999.90;999.90;;;;;;;-0.07;85.52;96447.97;5114280;28;20104;-63
2023/11/30 05:55:43;;;;;;;1999.90;999.90;;;;;;;-0.16;84.73;96430.81;5114190;28;20043;-61
2023/11/30 05:58:11;;;;;;;1999.90;999.90;;;;;;;-0.19;84.59;96438.53;5114108;28;20047;-65
2023/11/30 06:00:38;;;;;;;1999.90;999.90;;;;;;;-0.13;85.01;96440.25;5114245;28;20051;-66
2023/11/30 06:03:05;;;;;;;1999.90;999.90;;;;;;;-0.08;85.38;96451.41;5114044;28;20043;-64
2023/11/30 06:05:34;;;;;;;1999.90;999.90;;;;;;;-0.01;85.55;96462.56;5113894;28;20108;-62
2023/11/30 06:08:01;;;;;;;1999.90;999.90;;;;;;;0.54;88.05;96476.38;5114317;28;20485;-64
2023/11/30 06:10:28;;;;;;;1999.90;999.90;;;;;;;1.96;85.76;96481.25;5114016;28;20486;-62
2023/11/30 06:12:55;;;;;;;1999.90;999.90;;;;;;;3.48;75.33;96493.03;5113818;28;20489;-63
2023/11/30 06:15:22;;;;;;;1999.90;999.90;;;;;;;4.85;68.73;96496.44;5113895;28;20055;-62
2023/11/30 06:17:50;;;;;;;1999.90;999.90;;;;;;;6.33;62.47;96521.47;5113811;28;20626;-60
2023/11/30 06:20:19;;;;;;;1999.90;999.90;;;;;;;7.91;58.73;96530.69;5114059;28;20040;-61
2023/11/30 06:22:49;;;;;;;1999.90;999.90;;;;;;;9.07;53.83;96507.31;5113749;28;20119;-66
2023/11/30 06:25:16;;;;;;;1999.90;999.90;;;;;;;10.24;50.14;96506.75;5113447;28;20199;-60
2023/11/30 06:27:43;;;;;;;1999.90;999.90;;;;;;;11.48;47.73;96521.19;5113755;28;20047;-63
2023/11/30 06:30:11;;;;;;;1999.90;999.90;;;;;;;12.59;44.92;96526.88;5113743;28;20092;-63
2023/11/30 06:32:38;;;;;;;1999.90;999.90;;;;;;;13.62;41.69;96531.66;5113860;28;20164;-61
2023/11/30 06:35:06;;;;;;;1999.90;999.90;;;;;;;14.64;39.79;96530.75;5113784;28;20056;-64
2023/11/30 06:37:33;;;;;;;1999.90;999.90;;;;;;;15.44;38.35;96541.34;5113498;28;20058;-62
2023/11/30 06:40:01;;;;;;;1999.90;999.90;;;;;;;16.39;37.07;96534.00;5113860;28;20050;-60
2023/11/30 06:42:30;;;;;;;1999.90;999.90;;;;;;;17.29;35.12;96540.72;5113586;28;20043;-65
2023/11/30 06:44:57;;;;;;;1999.90;999.90;;;;;;;17.84;33.83;96541.56;5112584;28;20401;-62
2023/11/30 06:47:24;;;;;;;1999.90;999.90;;;;;;;18.35;31.70;96542.59;5113465;28;20043;-61
2023/11/30 06:49:51;;;;;;;1999.90;999.90;;;;;;;18.64;31.47;96539.69;5113406;28;20051;-65
2023/11/30 06:52:18;;;;;;;1999.90;999.90;;;;;;;18.83;31.64;96547.19;5113391;28;20546;-66
2023/11/30 06:54:45;;;;;;;1999.90;999.90;;;;;;;19.14;31.30;96547.63;5113495;28;20501;-63
2023/11/30 06:57:14;;;;;;;1999.90;999.90;;;;;;;19.55;30.34;96542.06;5113414;28;20044;-64
2023/11/30 06:59:43;;;;;;;1999.90;999.90;;;;;;;20.05;29.78;96544.50;5113384;28;20040;-62
2023/11/30 07:02:10;;;;;;;1999.90;999.90;;;;;;;20.28;29.42;96538.38;5113492;28;20040;-62
2023/11/30 07:04:37;;;;;;;1999.90;999.90;;;;;;;20.29;29.09;96538.25;5113237;28;20039;-63
2023/11/30 07:07:04;;;;;;;1999.90;999.90;;;;;;;20.27;29.52;96540.22;5113206;28;20439;-62
2023/11/30 07:09:31;;;;;;;1999.90;999.90;;;;;;;20.49;28.73;96541.19;5113367;28;20052;-63
2023/11/30 07:11:58;;;;;;;1999.90;999.90;;;;;;;20.90;29.30;96546.88;5113117;28;20097;-63
2023/11/30 07:14:27;;;;;;;1999.90;999.90;;;;;;;21.50;28.09;96560.75;5113210;28;20091;-62
2023/11/30 07:16:54;;;;;;;1999.90;999.90;;;;;;;21.90;27.58;96551.28;5113145;28;20439;-65
2023/11/30 07:19:21;;;;;;;1999.90;999.90;;;;;;;22.05;26.75;96555.31;5113175;28;20085;-64
2023/11/30 07:21:50;;;;;;;1999.90;999.90;;;;;;;22.27;26.86;96558.78;5113191;28;20130;-66
2023/11/30 07:24:17;;;;;;;1999.90;999.90;;;;;;;22.41;26.48;96562.94;5113156;28;20119;-65
2023/11/30 07:26:47;;;;;;;1999.90;999.90;;;;;;;22.50;25.96;96569.28;5113020;28;20140;-62
2023/11/30 07:29:15;;;;;;;1999.90;999.90;;;;;;;21.74;27.07;96559.69;5113036;28;20087;-65
2023/11/30 07:31:44;;;;;;;1999.90;999.90;;;;;;;21.07;28.42;96563.28;5113048;28;20051;-63
2023/11/30 07:34:11;;;;;;;1999.90;999.90;;;;;;;21.17;28.92;96571.34;5113003;28;20446;-62
2023/11/30 07:36:39;;;;;;;1999.90;999.90;;;;;;;20.53;28.36;96569.19;5113001;28;20043;-63
2023/11/30 07:39:06;;;;;;;1999.90;999.90;;;;;;;19.99;29.90;96578.63;5113039;28;20074;-62
2023/11/30 07:41:33;;;;;;;1999.90;999.90;;;;;;;20.05;29.83;96576.38;5113026;28;20086;-62
2023/11/30 07:44:00;;;;;;;1999.90;999.90;;;;;;;20.04;30.45;96571.16;5112966;28;20121;-65
2023/11/30 07:46:27;;;;;;;1999.90;999.90;;;;;;;20.36;30.64;96575.84;5112736;28;20142;-62
2023/11/30 07:48:55;;;;;;;1999.90;999.90;;;;;;;21.36;28.76;96577.81;5113079;28;20047;-64
2023/11/30 07:51:23;;;;;;;1999.90;999.90;;;;;;;22.01;27.73;96580.53;5112929;28;20048;-64
2023/11/30 07:53:50;;;;;;;1999.90;999.90;;;;;;;22.40;25.38;96574.59;5112852;28;20409;-65
2023/11/30 07:56:20;;;;;;;1999.90;999.90;;;;;;;22.36;28.26;96578.47;5114957;28;20039;-66
2023/11/30 07:58:48;;;;;;;1999.90;999.90;;;;;;;22.74;27.88;96584.16;5116462;28;20039;-61
2023/11/30 08:01:15;;;;;;;1999.90;999.90;;;;;;;23.21;27.44;96596.94;5116455;28;20093;-61
2023/11/30 08:03:43;;;;;;;1999.90;999.90;;;;;;;23.56;27.34;96601.94;5116277;28;20527;-64
2023/11/30 08:06:11;;;;;;;1999.90;999.90;;;;;;;22.87;27.38;96581.25;5116332;28;20051;-65
2023/11/30 08:08:38;;;;;;;1999.90;999.90;;;;;;;22.70;27.42;96580.09;5116366;28;20044;-64
2023/11/30 08:11:06;;;;;;;1999.90;999.90;;;;;;;23.03;27.17;96595.91;5116198;28;20101;-62
2023/11/30 08:13:33;;;;;;;1999.90;999.90;;;;;;;23.17;26.93;96584.88;5116234;28;20127;-65
2023/11/30 08:16:02;;;;;;;1999.90;999.90;;;;;;;23.27;26.63;96584.06;5116256;28;20050;-63
2023/11/30 08:18:29;;;;;;;1999.90;999.90;;;;;;;22.76;27.27;96587.56;5116123;28;20405;-63
2023/11/30 08:20:58;;;;;;;1999.90;999.90;;;;;;;22.29;28.22;96582.63;5115993;28;20043;-64
2023/11/30 08:23:27;;;;;;;1999.90;999.90;;;;;;;22.52;28.14;96582.50;5116008;28;20047;-64
2023/11/30 08:25:56;;;;;;;1999.90;999.90;;;;;;;22.31;28.52;96589.50;5115733;28;20300;-63
2023/11/30 08:28:23;;;;;;;1999.90;999.90;;;;;;;21.48;29.28;96597.25;5115979;28;20055;-64
2023/11/30 08:30:51;;;;;;;1999.90;999.90;;;;;;;20.82;28.61;96583.81;5115970;28;20043;-63
2023/11/30 08:33:18;;;;;;;1999.90;999.90;;;;;;;20.25;30.38;96581.09;5115795;28;20496;-61
2023/11/30 08:35:45;;;;;;;1999.90;999.90;;;;;;;19.65;28.96;96576.69;5115831;28;20505;-62
2023/11/30 08:38:12;;;;;;;1999.90;999.90;;;;;;;19.03;32.19;96582.84;5115841;28;20052;-62
2023/11/30 08:40:40;;;;;;;1999.90;999.90;;;;;;;18.53;31.84;96578.38;5116018;28;20056;-65
2023/11/30 08:43:07;;;;;;;1999.90;999.90;;;;;;;18.06;32.60;96584.16;5115583;28;20083;-64
2023/11/30 08:45:34;;;;;;;1999.90;999.90;;;;;;;17.42;33.98;96576.91;5115591;28;20144;-63
2023/11/30 08:48:02;;;;;;;1999.90;999.90;;;;;;;16.95;34.39;96581.66;5115555;28;20051;-65
2023/11/30 08:50:29;;;;;;;1999.90;999.90;;;;;;;16.31;37.22;96582.91;5115590;28;20522;-63
2023/11/30 08:52:56;;;;;;;1999.90;999.90;;;;;;;15.69;37.83;96572.41;5115388;28;20054;-63
2023/11/30 08:55:24;;;;;;;1999.90;999.90;;;;;;;14.97;40.40;96560.59;5115487;28;20054;-60
2023/11/30 08:57:53;;;;;;;1999.90;999.90;;;;;;;14.21;42.70;96536.53;5115356;28;20047;-64
2023/11/30 09:00:21;;;;;;;1999.90;999.90;;;;;;;13.71;44.37;96527.72;5115298;28;20044;-61
2023/11/30 09:02:48;;;;;;;1999.90;999.90;;;;;;;12.98;47.09;96538.19;5115268;28;20044;-65
2023/11/30 09:05:15;;;;;;;1999.90;999.90;;;;;;;12.60;48.15;96543.47;5115284;28;20051;-61
2023/11/30 09:07:42;;;;;;;1999.90;999.90;;;;;;;12.28;49.02;96532.69;5114759;28;20505;-64
2023/11/30 09:10:10;;;;;;;1999.90;999.90;;;;;;;11.99;50.90;96554.00;5115232;28;20500;-62
2023/11/30 09:12:37;;;;;;;1999.90;999.90;;;;;;;11.70;51.43;96556.94;5115256;28;20512;-65
2023/11/30 09:15:08;;;;;;;1999.90;999.90;;;;;;;11.78;50.39;96547.91;5114935;28;20054;-63
2023/11/30 09:17:35;;;;;;;1999.90;999.90;;;;;;;11.32;51.96;96539.28;5114961;28;20043;-63
2023/11/30 09:20:05;;;;;;;1999.90;999.90;;;;;;;11.12;52.67;96533.09;5114880;28;20100;-61
2023/11/30 09:22:32;;;;;;;1999.90;999.90;;;;;;;10.93;55.20;96529.53;5114920;28;20044;-61
2023/11/30 09:24:59;;;;;;;1999.90;999.90;;;;;;;10.68;54.25;96520.00;5114577;28;20123;-65
2023/11/30 09:27:26;;;;;;;1999.90;999.90;;;;;;;10.59;55.47;96529.06;5114672;28;20131;-61
2023/11/30 09:29:54;;;;;;;1999.90;999.90;;;;;;;10.60;54.53;96523.75;5114875;28;20091;-60
2023/11/30 09:32:23;;;;;;;1999.90;999.90;;;;;;;10.66;54.07;96517.47;5114671;28;20048;-64
2023/11/30 09:34:50;;;;;;;1999.90;999.90;;;;;;;10.76;56.12;96519.69;5114852;28;20519;-61
2023/11/30 09:37:17;;;;;;;1999.90;999.90;;;;;;;10.66;54.89;96514.00;5114773;28;20086;-61
2023/11/30 09:39:46;;;;;;;1999.90;999.90;;;;;;;10.68;55.03;96514.75;5114401;28;20055;-60
2023/11/30 09:42:16;;;;;;;1999.90;999.90;;;;;;;10.77;52.90;96506.56;5114498;28;20477;-63
2023/11/30 09:44:43;;;;;;;1999.90;999.90;;;;;;;10.71;51.50;96488.47;5114421;28;20050;-63
2023/11/30 09:47:10;;;;;;;1999.90;999.90;;;;;;;10.87;51.31;96483.50;5114242;28;20163;-62
2023/11/30 09:49:39;;;;;;;1999.90;999.90;;;;;;;10.99;50.47;96495.25;5114349;28;20050;-63
2023/11/30 09:52:07;;;;;;;1999.90;999.90;;;;;;;10.88;53.24;96500.91;5114279;28;20413;-63
2023/11/30 09:54:35;;;;;;;1999.90;999.90;;;;;;;10.61;52.64;96503.69;5114175;28;20051;-61
2023/11/30 09:57:04;;;;;;;1999.90;999.90;;;;;;;10.60;52.66;96486.31;5114501;28;20050;-62
2023/11/30 09:59:31;;;;;;;1999.90;999.90;;;;;;;10.61;53.07;96490.63;5114224;28;20062;-62
2023/11/30 10:02:00;;;;;;;1999.90;999.90;;;;;;;10.67;52.83;96490.38;5114174;28;20040;-64
2023/11/30 10:04:27;;;;;;;1999.90;999.90;;;;;;;10.67;52.81;96487.78;5114131;28;20401;-64
2023/11/30 10:06:57;;;;;;;1999.90;999.90;;;;;;;10.75;52.39;96482.25;5113996;28;20083;-62
2023/11/30 10:09:24;;;;;;;1999.90;999.90;;;;;;;10.69;54.27;96487.72;5114238;28;20047;-61
2023/11/30 10:11:52;;;;;;;1999.90;999.90;;;;;;;10.72;51.85;96477.13;5113944;28;20464;-62
2023/11/30 10:14:19;;;;;;;1999.90;999.90;;;;;;;10.74;52.06;96473.53;5113961;28;20040;-64
2023/11/30 10:16:46;;;;;;;1999.90;999.90;;;;;;;10.84;51.57;96479.22;5113710;28;20058;-62
2023/11/30 10:19:13;;;;;;;1999.90;999.90;;;;;;;10.99;51.72;96483.00;5113694;28;20532;-65
2023/11/30 10:21:41;;;;;;;1999.90;999.90;;;;;;;11.16;52.71;96480.59;5113856;28;20039;-64
2023/11/30 10:24:10;;;;;;;1999.90;999.90;;;;;;;11.27;51.71;96469.69;5113743;28;20044;-63
2023/11/30 10:26:38;;;;;;;1999.90;999.90;;;;;;;11.41;51.38;96466.50;5113447;28;20054;-64
2023/11/30 10:29:06;;;;;;;1999.90;999.90;;;;;;;11.51;52.41;96459.94;5113682;28;20119;-65
2023/11/30 10:31:36;;;;;;;1999.90;999.90;;;;;;;11.37;52.66;96474.47;5113668;28;20051;-63
2023/11/30 10:34:07;;;;;;;1999.90;999.90;;;;;;;11.34;52.93;96482.47;5113582;28;20062;-65
2023/11/30 10:36:34;;;;;;;1999.90;999.90;;;;;;;11.13;54.17;96484.19;5113585;28;20465;-63
2023/11/30 10:39:16;;;;;;;1999.90;999.90;;;;;;;10.89;52.51;96478.22;5113491;28;20126;-64
2023/11/30 10:41:50;;;;;;;1999.90;999.90;;;;;;;10.84;52.80;96473.16;5113667;28;20054;-63
2023/11/30 10:44:25;;;;;;;1999.90;999.90;;;;;;;10.57;55.62;96468.94;5113536;28;20063;-65
2023/11/30 10:46:55;;;;;;;1999.90;999.90;;;;;;;10.29;56.81;96456.91;5113503;28;20051;-62
2023/11/30 10:49:23;;;;;;;1999.90;999.90;;;;;;;10.33;55.69;96453.25;5113803;28;20053;-63
2023/11/30 10:51:51;;;;;;;1999.90;999.90;;;;;;;10.46;55.04;96447.59;5113442;28;20077;-63
2023/11/30 10:54:29;;;;;;;1999.90;999.90;;;;;;;10.56;54.66;96450.69;5113394;28;20493;-64
2023/11/30 10:56:56;;;;;;;1999.90;999.90;;;;;;;10.60;54.73;96447.91;5113386;28;20086;-64
2023/11/30 10:59:24;;;;;;;1999.90;999.90;;;;;;;10.77;54.67;96443.75;5113606;28;20043;-64